Shoal, North Carolina
Current Conditions -  °F | °C
As of 2:35 AM on Saturday 25 Oct 2014 (Local Time) from KMWK Reporting Station
Clear Clear  
Wind Chill: 49°   Ceiling: Unl
Heat Index: 49°   Visibility: 10mi
Dew Point: 35°   Wind: 0mph
Humidity: 57%   Direction: NA
Pressure: 30.03"   Gusts: NA
Location:  36.3244°N, 80.463°W
Report Text: KMWK 250635Z AUTO 00000KT 10SM CLR 10/02 A3003 RMK AO2 T00970016
Loading
Personal Weather Stations






























Interactive Weather Map
Tropical Storm Tracking
New forecast layout! Learn more

10-Day Weather Forecast

Advertisements
Track Severe Weather on mobile